Time;durP1;ratioP1;P1;durP2;ratioP2;P2;SDS_P1;SDS_P2;PMS_P1;PMS_P2;Temp;Humidity;BMP_temperature;BMP_pressure;BME280_temperature;BME280_humidity;BME280_pressure;Samples;Min_cycle;Max_cycle;Signal;HPM_P1;HPM_P2
2022/10/01 00:00:34;;;;;;;10.88;3.90;;;9.50;99.90;;;;;;6248348;28;20049;-81
2022/10/01 00:03:37;;;;;;;4.90;3.20;;;9.50;99.90;;;;;;6248193;28;20049;-81
2022/10/01 00:06:38;;;;;;;5.97;3.20;;;9.60;99.90;;;;;;6248301;28;20046;-82
2022/10/01 00:09:40;;;;;;;8.00;3.60;;;9.70;99.90;;;;;;6247884;28;20056;-81
2022/10/01 00:12:45;;;;;;;7.30;3.22;;;9.70;99.90;;;;;;6248786;28;20054;-81
2022/10/01 00:15:48;;;;;;;5.53;2.85;;;9.70;99.90;;;;;;6248592;28;20045;-81
2022/10/01 00:18:52;;;;;;;5.90;4.07;;;9.80;99.90;;;;;;6248024;28;20060;-82
2022/10/01 00:21:53;;;;;;;9.98;2.90;;;9.80;99.90;;;;;;6254933;28;20096;-82
2022/10/01 00:24:56;;;;;;;3.28;2.30;;;9.80;99.90;;;;;;6253781;28;20046;-82
2022/10/01 00:27:58;;;;;;;5.75;2.90;;;9.80;99.90;;;;;;6255979;28;20179;-82
2022/10/01 00:31:01;;;;;;;5.28;2.65;;;9.70;99.90;;;;;;6261392;28;20117;-81
2022/10/01 00:34:03;;;;;;;5.53;3.15;;;9.70;99.90;;;;;;6264587;28;20050;-81
2022/10/01 00:37:05;;;;;;;7.43;2.75;;;9.60;99.90;;;;;;6261619;28;20049;-82
2022/10/01 00:40:08;;;;;;;8.65;3.42;;;9.60;99.90;;;;;;6277861;28;20056;-82
2022/10/01 00:43:23;;;;;;;8.43;2.90;;;9.60;99.90;;;;;;6278626;28;20044;-83
2022/10/01 00:46:29;;;;;;;7.78;3.70;;;9.60;99.90;;;;;;6284413;28;20053;-82
2022/10/01 00:49:33;;;;;;;9.32;4.40;;;9.50;99.90;;;;;;6285254;28;20122;-82
2022/10/01 00:52:39;;;;;;;3.78;2.10;;;9.50;99.90;;;;;;6286359;28;20064;-82
2022/10/01 00:55:43;;;;;;;7.03;2.83;;;9.40;99.90;;;;;;6276939;28;20091;-82
2022/10/01 00:58:45;;;;;;;6.32;3.13;;;9.40;99.90;;;;;;6285088;28;20072;-81
2022/10/01 01:01:48;;;;;;;3.95;2.65;;;9.40;99.90;;;;;;6286911;28;20059;-82
2022/10/01 01:04:50;;;;;;;4.30;2.45;;;9.30;99.90;;;;;;6287267;28;20513;-82
2022/10/01 01:07:53;;;;;;;13.15;3.65;;;9.30;99.90;;;;;;6280494;28;20071;-82
2022/10/01 01:11:03;;;;;;;7.78;3.50;;;9.30;99.90;;;;;;6288226;28;20053;-82
2022/10/01 01:14:14;;;;;;;6.35;2.63;;;9.30;99.90;;;;;;6266946;28;20045;-81
2022/10/01 01:17:25;;;;;;;3.90;2.53;;;9.20;99.90;;;;;;6275066;28;20053;-82
2022/10/01 01:20:50;;;;;;;3.40;2.42;;;9.20;99.90;;;;;;6274910;28;20040;-82
2022/10/01 01:24:28;;;;;;;5.97;3.30;;;9.20;99.90;;;;;;6274573;28;20570;-82
2022/10/01 01:27:37;;;;;;;5.35;2.72;;;9.20;99.90;;;;;;6256609;28;20056;-82
2022/10/01 01:30:42;;;;;;;5.85;2.90;;;9.20;99.90;;;;;;6251821;28;20423;-82
2022/10/01 01:33:48;;;;;;;5.05;3.00;;;9.30;99.90;;;;;;6251337;28;20068;-82
2022/10/01 01:36:54;;;;;;;3.88;2.80;;;9.30;99.90;;;;;;6250281;28;20056;-83
2022/10/01 01:39:59;;;;;;;4.32;2.67;;;9.30;99.90;;;;;;6249160;28;20057;-83
2022/10/01 01:43:04;;;;;;;7.22;2.75;;;9.40;99.90;;;;;;6249426;28;20045;-82
2022/10/01 01:46:09;;;;;;;8.98;2.90;;;9.40;99.90;;;;;;6249152;28;20092;-82
2022/10/01 01:49:16;;;;;;;4.32;2.60;;;9.50;99.90;;;;;;6249259;28;20057;-82
2022/10/01 01:52:18;;;;;;;4.68;3.00;;;9.50;99.90;;;;;;6249523;28;20052;-82
2022/10/01 01:55:21;;;;;;;6.18;2.50;;;9.60;99.90;;;;;;6249590;28;20041;-82
2022/10/01 01:58:24;;;;;;;6.22;2.42;;;9.70;99.90;;;;;;6249007;28;20052;-82
2022/10/01 02:01:38;;;;;;;3.65;2.13;;;9.80;99.90;;;;;;6248952;28;20573;-82
2022/10/01 02:04:45;;;;;;;3.15;2.40;;;10.00;99.90;;;;;;6248990;28;20052;-83
2022/10/01 02:08:03;;;;;;;5.80;2.53;;;10.20;99.90;;;;;;6248403;28;20060;-82
2022/10/01 02:11:14;;;;;;;;;;;10.30;99.90;;;;;;6250250;28;20050;-83
2022/10/01 02:14:26;;;;;;;8.32;2.95;;;10.50;99.90;;;;;;6248542;28;20378;-82
2022/10/01 02:17:38;;;;;;;3.20;2.15;;;10.60;99.90;;;;;;6249045;28;20093;-82
2022/10/01 02:20:49;;;;;;;9.50;2.45;;;10.80;99.90;;;;;;6248202;28;20419;-81
2022/10/01 02:23:56;;;;;;;4.18;1.80;;;10.90;99.90;;;;;;6248022;28;20049;-82
2022/10/01 02:27:02;;;;;;;3.22;1.63;;;11.00;99.90;;;;;;6248210;28;20041;-82
2022/10/01 02:30:07;;;;;;;3.60;1.92;;;11.10;99.90;;;;;;6247643;28;20364;-83
2022/10/01 02:33:13;;;;;;;5.35;1.92;;;11.20;99.90;;;;;;6255648;28;20052;-82
2022/10/01 02:36:17;;;;;;;3.05;2.30;;;11.30;99.90;;;;;;6257773;28;20095;-82
2022/10/01 02:39:21;;;;;;;1.90;1.50;;;11.30;99.90;;;;;;6247789;28;20071;-82
2022/10/01 02:42:27;;;;;;;2.05;1.35;;;11.40;99.90;;;;;;6248857;28;20068;-81
2022/10/01 02:45:33;;;;;;;2.05;1.02;;;11.50;99.90;;;;;;6248258;28;20049;-82
2022/10/01 02:48:36;;;;;;;1.95;1.02;;;11.60;99.90;;;;;;6247908;28;20446;-81
2022/10/01 02:51:47;;;;;;;1.58;0.93;;;11.70;99.90;;;;;;6246375;28;20149;-82
2022/10/01 02:54:52;;;;;;;2.58;1.23;;;11.80;99.90;;;;;;6247499;28;20046;-83
2022/10/01 02:57:54;;;;;;;3.88;1.02;;;11.80;99.90;;;;;;6247477;28;20041;-82
2022/10/01 03:00:55;;;;;;;1.52;0.90;;;11.90;99.90;;;;;;6248124;28;20053;-82
2022/10/01 03:03:58;;;;;;;2.60;1.27;;;12.00;99.90;;;;;;6255378;28;20419;-83
2022/10/01 03:07:02;;;;;;;1.50;1.17;;;12.10;99.90;;;;;;6266045;28;20056;-82
2022/10/01 03:10:05;;;;;;;1.67;0.90;;;12.20;99.90;;;;;;6271635;28;20564;-82
2022/10/01 03:13:07;;;;;;;1.55;1.00;;;12.20;99.90;;;;;;6272596;28;20064;-82
2022/10/01 03:16:09;;;;;;;3.28;0.90;;;12.30;99.90;;;;;;6272229;28;20041;-82
2022/10/01 03:19:12;;;;;;;1.00;0.70;;;12.40;99.90;;;;;;6270604;28;20060;-82
2022/10/01 03:22:17;;;;;;;1.35;0.90;;;12.40;99.90;;;;;;6246774;28;20046;-82
2022/10/01 03:25:18;;;;;;;2.42;1.00;;;12.40;99.90;;;;;;6247405;28;20056;-82
2022/10/01 03:28:20;;;;;;;2.33;1.35;;;12.50;99.90;;;;;;6246771;28;20511;-83
2022/10/01 03:31:22;;;;;;;2.45;0.90;;;12.50;99.90;;;;;;6246572;28;20052;-82
2022/10/01 03:34:25;;;;;;;2.67;0.63;;;12.50;99.90;;;;;;6255657;28;20045;-82
2022/10/01 03:37:27;;;;;;;5.22;0.88;;;12.50;99.90;;;;;;6271615;28;20049;-83
2022/10/01 03:40:32;;;;;;;1.52;0.85;;;12.60;99.90;;;;;;6271551;28;20424;-83
2022/10/01 03:43:33;;;;;;;1.30;0.60;;;12.60;99.90;;;;;;6271635;28;20538;-83
2022/10/01 03:46:35;;;;;;;7.82;1.95;;;12.60;99.90;;;;;;6285436;28;20136;-84
2022/10/01 03:49:38;;;;;;;1.23;0.65;;;12.60;99.90;;;;;;6282310;28;20450;-84
2022/10/01 03:52:41;;;;;;;2.08;0.68;;;12.70;99.90;;;;;;6272530;28;20049;-84
2022/10/01 03:55:43;;;;;;;1.90;0.80;;;12.70;99.90;;;;;;6271183;28;20048;-84
2022/10/01 03:58:44;;;;;;;1.02;0.52;;;12.80;99.90;;;;;;6271329;28;20057;-84
2022/10/01 04:01:46;;;;;;;1.48;0.63;;;12.90;99.90;;;;;;6273309;28;20507;-83
2022/10/01 04:04:49;;;;;;;2.78;0.75;;;13.00;99.90;;;;;;6276919;28;20426;-84
2022/10/01 04:07:51;;;;;;;1.23;0.38;;;13.00;99.90;;;;;;6276329;28;20159;-83
2022/10/01 04:10:53;;;;;;;0.47;0.38;;;13.10;99.90;;;;;;6276593;28;20415;-84
2022/10/01 04:13:56;;;;;;;5.50;3.67;;;13.10;99.90;;;;;;6276731;28;20045;-84
2022/10/01 04:16:58;;;;;;;7.22;2.67;;;13.10;99.90;;;;;;6295668;28;20063;-84
2022/10/01 04:20:01;;;;;;;0.82;0.63;;;13.10;99.90;;;;;;6276041;28;20392;-84
2022/10/01 04:23:04;;;;;;;1.38;0.52;;;13.10;99.90;;;;;;6275966;28;20106;-83
2022/10/01 04:26:06;;;;;;;2.78;1.70;;;13.20;99.90;;;;;;6276036;28;20049;-84
2022/10/01 04:29:08;;;;;;;3.22;2.08;;;13.30;99.90;;;;;;6276781;28;20142;-83
2022/10/01 04:32:10;;;;;;;1.35;0.75;;;13.30;99.90;;;;;;6275479;28;20537;-84
2022/10/01 04:35:13;;;;;;;1.58;0.43;;;13.40;99.90;;;;;;6267758;28;20049;-82
2022/10/01 04:38:16;;;;;;;2.78;0.70;;;13.40;99.90;;;;;;6252668;28;20057;-83
2022/10/01 04:41:18;;;;;;;2.35;0.85;;;13.40;99.90;;;;;;6251095;28;20053;-83
2022/10/01 04:44:20;;;;;;;2.95;1.15;;;13.50;99.90;;;;;;6250845;28;20053;-83
2022/10/01 04:47:21;;;;;;;1.48;0.95;;;13.50;99.90;;;;;;6251661;28;20053;-83
2022/10/01 04:50:26;;;;;;;5.00;0.73;;;13.40;99.90;;;;;;6250267;28;20052;-83
2022/10/01 04:53:28;;;;;;;3.58;0.80;;;13.40;99.90;;;;;;6251030;28;20049;-84
2022/10/01 04:56:30;;;;;;;3.28;0.77;;;13.30;99.90;;;;;;6250654;28;20095;-85
2022/10/01 04:59:31;;;;;;;1.58;0.63;;;13.20;99.90;;;;;;6250034;28;20057;-84
2022/10/01 05:02:34;;;;;;;2.63;1.05;;;13.00;99.90;;;;;;6250111;28;20560;-84
2022/10/01 05:05:37;;;;;;;1.33;0.60;;;12.90;99.90;;;;;;6250748;28;20388;-84
2022/10/01 05:08:39;;;;;;;1.48;0.75;;;12.80;99.90;;;;;;6250585;28;20107;-84
2022/10/01 05:11:41;;;;;;;2.25;1.10;;;12.60;99.90;;;;;;6250014;28;20045;-83
2022/10/01 05:14:42;;;;;;;1.75;0.70;;;12.50;99.90;;;;;;6248927;28;20050;-85
2022/10/01 05:17:44;;;;;;;5.88;1.02;;;12.40;99.90;;;;;;6249974;28;20060;-84
2022/10/01 05:20:47;;;;;;;2.53;1.00;;;12.30;99.90;;;;;;6250355;28;20495;-84
2022/10/01 05:23:49;;;;;;;1.90;0.63;;;12.30;99.90;;;;;;6250442;28;20424;-85
2022/10/01 05:26:52;;;;;;;5.65;1.48;;;12.30;99.90;;;;;;6249762;28;20060;-84
2022/10/01 05:29:55;;;;;;;2.15;1.23;;;12.20;99.90;;;;;;6249424;28;20454;-84
2022/10/01 05:32:59;;;;;;;1.15;0.88;;;12.20;99.90;;;;;;6250397;28;20046;-84
2022/10/01 05:36:03;;;;;;;1.65;1.05;;;12.20;99.90;;;;;;6251823;28;20045;-84
2022/10/01 05:39:05;;;;;;;3.13;1.30;;;12.20;99.90;;;;;;6253607;28;20045;-84
2022/10/01 05:42:07;;;;;;;1.90;1.20;;;12.20;99.90;;;;;;6249514;28;20036;-84
2022/10/01 05:45:10;;;;;;;1.98;1.02;;;12.10;99.90;;;;;;6249974;28;20056;-84
2022/10/01 05:48:12;;;;;;;1.20;0.80;;;12.10;99.90;;;;;;6249112;28;20049;-84
2022/10/01 05:51:15;;;;;;;3.95;1.40;;;12.10;99.90;;;;;;6248996;28;20045;-84
2022/10/01 05:54:18;;;;;;;2.65;1.00;;;12.10;99.90;;;;;;6250815;28;20042;-83
2022/10/01 05:57:20;;;;;;;3.28;1.00;;;12.10;99.90;;;;;;6248902;28;20052;-84
2022/10/01 06:00:22;;;;;;;1.55;1.05;;;12.10;99.90;;;;;;6249740;28;20060;-84
2022/10/01 06:03:24;;;;;;;1.77;1.10;;;12.10;99.90;;;;;;6249104;28;20045;-84
2022/10/01 06:06:28;;;;;;;3.58;2.50;;;12.10;99.90;;;;;;6249103;28;20107;-84
2022/10/01 06:09:29;;;;;;;4.50;3.38;;;12.10;99.90;;;;;;6248808;28;20049;-83
2022/10/01 06:12:33;;;;;;;3.08;2.28;;;12.10;99.90;;;;;;6248947;28;20060;-84
2022/10/01 06:15:37;;;;;;;3.83;1.77;;;12.10;99.90;;;;;;6248524;28;20056;-84
2022/10/01 06:18:39;;;;;;;5.68;1.65;;;12.10;99.90;;;;;;6248646;28;20095;-84
2022/10/01 06:21:42;;;;;;;4.85;2.08;;;12.20;99.90;;;;;;6248492;28;20060;-84
2022/10/01 06:24:43;;;;;;;6.40;1.30;;;12.20;99.90;;;;;;6249118;28;20056;-84
2022/10/01 06:27:52;;;;;;;4.43;2.63;;;12.30;99.90;;;;;;6248120;28;20045;-84
2022/10/01 06:30:54;;;;;;;10.43;1.63;;;12.30;99.90;;;;;;6248352;28;20095;-84
2022/10/01 06:33:55;;;;;;;4.15;1.50;;;12.30;99.90;;;;;;6248778;28;20507;-84
2022/10/01 06:36:58;;;;;;;5.13;1.40;;;12.30;99.90;;;;;;6253614;28;20498;-84
2022/10/01 06:40:00;;;;;;;7.07;2.25;;;12.30;99.90;;;;;;6266405;28;20414;-84
2022/10/01 06:43:02;;;;;;;3.83;1.48;;;12.30;99.90;;;;;;6272560;28;20045;-85
2022/10/01 06:46:05;;;;;;;4.80;2.38;;;12.40;99.90;;;;;;6273451;28;20041;-84
2022/10/01 06:49:07;;;;;;;3.10;1.75;;;12.40;99.90;;;;;;6273685;28;20088;-85
2022/10/01 06:55:32;;;;;;;2.17;1.40;;;12.40;99.90;;;;;;6273898;28;20041;-84
2022/10/01 06:58:34;;;;;;;9.32;2.20;;;12.30;99.90;;;;;;6273229;28;20521;-84
2022/10/01 07:01:36;;;;;;;3.28;1.60;;;12.40;99.90;;;;;;6272714;28;20064;-83
2022/10/01 07:04:38;;;;;;;4.25;1.48;;;12.30;99.90;;;;;;6276338;28;20057;-83
2022/10/01 07:07:43;;;;;;;3.15;1.67;;;12.30;99.90;;;;;;6274380;28;20049;-83
2022/10/01 07:10:45;;;;;;;2.00;1.15;;;12.40;99.90;;;;;;6274627;28;20044;-84
2022/10/01 07:13:47;;;;;;;4.03;1.50;;;12.40;99.90;;;;;;6276985;28;20453;-84
2022/10/01 07:16:48;;;;;;;4.60;1.65;;;12.40;99.90;;;;;;6277943;28;20049;-85
2022/10/01 07:19:50;;;;;;;4.68;1.60;;;12.50;99.90;;;;;;6277465;28;20049;-82
2022/10/01 07:22:58;;;;;;;8.05;1.70;;;12.50;99.90;;;;;;6288817;28;20048;-84
2022/10/01 07:26:00;;;;;;;4.05;1.42;;;12.50;99.90;;;;;;6272799;28;20045;-85
2022/10/01 07:29:02;;;;;;;7.13;2.78;;;12.50;99.90;;;;;;6273270;28;20056;-84
2022/10/01 07:32:07;;;;;;;12.45;3.97;;;12.40;99.90;;;;;;6271894;28;20051;-85
2022/10/01 07:35:09;;;;;;;4.15;2.67;;;12.50;99.90;;;;;;6272346;28;20045;-84
2022/10/01 07:38:12;;;;;;;1.25;0.75;;;12.50;99.90;;;;;;6268503;28;20138;-83
2022/10/01 07:41:16;;;;;;;15.07;6.88;;;12.50;99.90;;;;;;6270897;28;20048;-85
2022/10/01 07:44:18;;;;;;;16.42;6.53;;;12.50;99.90;;;;;;6277619;28;20059;-85
2022/10/01 07:47:20;;;;;;;2.22;1.50;;;12.50;99.90;;;;;;6201241;28;20148;-85
2022/10/01 07:50:22;;;;;;;4.30;1.30;;;12.60;99.90;;;;;;6264900;28;20178;-83
2022/10/01 07:53:25;;;;;;;3.38;1.02;;;12.60;99.90;;;;;;6256674;28;20065;-82
2022/10/01 07:56:27;;;;;;;3.75;2.20;;;12.60;99.90;;;;;;6263516;28;20045;-84
2022/10/01 07:59:30;;;;;;;4.43;1.80;;;12.70;99.90;;;;;;6276262;28;20495;-84
2022/10/01 08:02:31;;;;;;;0.00;0.00;;;12.60;99.90;;;;;;6276673;28;20045;-85
2022/10/01 08:05:35;;;;;;;0.00;0.00;;;12.60;99.90;;;;;;6276495;28;20049;-88
2022/10/01 08:08:38;;;;;;;0.00;0.00;;;12.50;99.90;;;;;;6277193;28;20167;-85
2022/10/01 08:11:40;;;;;;;0.00;0.00;;;12.50;99.90;;;;;;6276700;28;20506;-84
2022/10/01 08:14:42;;;;;;;0.00;0.00;;;12.50;99.90;;;;;;6276427;28;20067;-83
2022/10/01 08:17:44;;;;;;;0.00;0.00;;;12.50;99.90;;;;;;6280583;28;20048;-83
2022/10/01 08:20:46;;;;;;;0.00;0.00;;;12.40;99.90;;;;;;6281594;28;20041;-83
2022/10/01 08:23:49;;;;;;;0.00;0.00;;;12.50;99.90;;;;;;6273515;28;20075;-83
2022/10/01 08:26:53;;;;;;;0.00;0.00;;;12.50;99.90;;;;;;6280827;28;20429;-83
2022/10/01 08:29:54;;;;;;;0.00;0.00;;;12.50;99.90;;;;;;6281241;28;20064;-83
2022/10/01 08:32:57;;;;;;;0.00;0.00;;;12.40;99.90;;;;;;6282105;28;20048;-83
2022/10/01 08:36:01;;;;;;;0.00;0.00;;;12.40;99.90;;;;;;6280503;28;20132;-83
2022/10/01 08:39:04;;;;;;;0.00;0.00;;;12.50;99.90;;;;;;6275690;28;20163;-83
2022/10/01 08:42:14;;;;;;;0.00;0.00;;;12.50;99.90;;;;;;6278161;28;20040;-83
2022/10/01 08:45:21;;;;;;;0.00;0.00;;;12.60;99.90;;;;;;6279411;28;20064;-84
2022/10/01 08:48:36;;;;;;;0.00;0.00;;;12.60;99.90;;;;;;6280202;28;20041;-83
2022/10/01 08:51:43;;;;;;;0.00;0.00;;;12.50;99.90;;;;;;6275310;28;20526;-82
2022/10/01 08:54:51;;;;;;;0.00;0.00;;;12.50;99.90;;;;;;6278687;28;20049;-83
2022/10/01 08:57:57;;;;;;;0.00;0.00;;;12.40;99.90;;;;;;6278640;28;20064;-84
2022/10/01 09:00:59;;;;;;;0.00;0.00;;;12.50;99.90;;;;;;6280623;28;20299;-83
2022/10/01 09:04:01;;;;;;;0.00;0.00;;;12.50;99.90;;;;;;6279334;28;20052;-83
2022/10/01 09:07:14;;;;;;;0.00;0.00;;;12.50;99.90;;;;;;6280578;28;20045;-83
2022/10/01 09:10:34;;;;;;;0.35;0.35;;;12.50;99.90;;;;;;6280785;28;20438;-83
2022/10/01 09:14:26;;;;;;;0.00;0.00;;;12.50;99.90;;;;;;6281194;28;20190;-84
2022/10/01 09:17:42;;;;;;;0.00;0.00;;;12.40;99.90;;;;;;6203287;28;20053;-83
2022/10/01 09:20:47;;;;;;;0.00;0.00;;;12.40;99.90;;;;;;6206044;28;20519;-83
2022/10/01 09:24:01;;;;;;;0.00;0.00;;;12.40;99.90;;;;;;6272423;28;20049;-84
2022/10/01 09:27:14;;;;;;;0.00;0.00;;;12.40;99.90;;;;;;6279580;28;20045;-84
2022/10/01 09:30:19;;;;;;;0.00;0.00;;;12.50;99.90;;;;;;6279023;28;20045;-83
2022/10/01 09:33:23;;;;;;;0.20;0.20;;;12.50;99.90;;;;;;6279880;28;20088;-83
2022/10/01 09:36:32;;;;;;;0.00;0.00;;;12.50;99.90;;;;;;6280489;28;20041;-83
2022/10/01 09:39:41;;;;;;;0.00;0.00;;;12.50;99.90;;;;;;6278402;28;20049;-83
2022/10/01 09:42:46;;;;;;;0.00;0.00;;;12.40;99.90;;;;;;6255095;28;20045;-83
2022/10/01 09:45:49;;;;;;;0.00;0.00;;;12.50;99.90;;;;;;6253416;28;20049;-84
2022/10/01 09:48:56;;;;;;;0.00;0.00;;;12.60;99.90;;;;;;6254959;28;20064;-83
2022/10/01 09:52:01;;;;;;;0.00;0.00;;;12.70;99.90;;;;;;6263608;28;20427;-84
2022/10/01 09:55:06;;;;;;;0.00;0.00;;;12.80;99.90;;;;;;6278712;28;20044;-83
2022/10/01 09:58:13;;;;;;;0.32;0.32;;;12.90;99.90;;;;;;6278368;28;20499;-83
2022/10/01 10:01:26;;;;;;;0.00;0.00;;;13.00;99.90;;;;;;6279534;28;20056;-83
2022/10/01 10:04:28;;;;;;;0.00;0.00;;;13.10;99.90;;;;;;6278464;28;20049;-83
2022/10/01 10:07:33;;;;;;;0.00;0.00;;;13.00;99.90;;;;;;6276994;28;20049;-83
2022/10/01 10:10:38;;;;;;;0.00;0.00;;;12.90;99.90;;;;;;6277604;28;20048;-83
2022/10/01 10:13:43;;;;;;;0.00;0.00;;;12.90;99.90;;;;;;6279132;28;20077;-82
2022/10/01 10:16:46;;;;;;;0.00;0.00;;;12.90;99.90;;;;;;6278614;28;20048;-83
2022/10/01 10:19:51;;;;;;;0.00;0.00;;;12.90;99.90;;;;;;6279346;28;20090;-83
2022/10/01 10:22:53;;;;;;;0.00;0.00;;;13.00;99.90;;;;;;6271186;28;20064;-82
2022/10/01 10:25:59;;;;;;;0.00;0.00;;;13.10;99.90;;;;;;6278874;28;20517;-82
2022/10/01 10:29:04;;;;;;;0.00;0.00;;;13.20;99.90;;;;;;6287043;28;20053;-82
2022/10/01 10:32:13;;;;;;;0.00;0.00;;;13.30;99.90;;;;;;6275657;28;20059;-83
2022/10/01 10:35:19;;;;;;;0.00;0.00;;;13.40;99.90;;;;;;6276624;28;20041;-83
2022/10/01 10:38:30;;;;;;;0.00;0.00;;;13.50;99.90;;;;;;6276840;28;20044;-83
2022/10/01 10:41:34;;;;;;;0.00;0.00;;;13.40;99.90;;;;;;6269242;28;20482;-82
2022/10/01 10:44:38;;;;;;;0.00;0.00;;;13.40;99.90;;;;;;6251478;28;20499;-82
2022/10/01 10:47:47;;;;;;;0.00;0.00;;;13.50;99.90;;;;;;6250683;28;20055;-84
2022/10/01 10:50:57;;;;;;;0.00;0.00;;;13.60;99.90;;;;;;6263898;28;20131;-83
2022/10/01 10:53:59;;;;;;;0.00;0.00;;;13.70;99.90;;;;;;6268786;28;20045;-83
2022/10/01 11:00:22;;;;;;;0.00;0.00;;;13.60;99.90;;;;;;6276124;28;20045;-82
2022/10/01 11:03:28;;;;;;;0.00;0.00;;;13.70;99.90;;;;;;6276965;28;20053;-82
2022/10/01 11:06:30;;;;;;;0.00;0.00;;;13.80;99.90;;;;;;6277514;28;20419;-82
2022/10/01 11:09:44;;;;;;;0.00;0.00;;;13.80;99.90;;;;;;6277191;28;20075;-82
2022/10/01 11:13:05;;;;;;;0.00;0.00;;;13.70;99.90;;;;;;6275775;28;20049;-82
2022/10/01 11:16:25;;;;;;;0.00;0.00;;;13.70;99.90;;;;;;6276595;28;20052;-82
2022/10/01 11:19:44;;;;;;;0.00;0.00;;;13.60;99.90;;;;;;6275682;28;20041;-81
2022/10/01 11:22:59;;;;;;;0.00;0.00;;;13.60;99.90;;;;;;6267836;28;20041;-83
2022/10/01 11:26:15;;;;;;;0.00;0.00;;;13.60;99.90;;;;;;6275992;28;20060;-82
2022/10/01 11:29:29;;;;;;;0.00;0.00;;;13.70;99.90;;;;;;6275986;28;20076;-82
2022/10/01 11:32:38;;;;;;;0.00;0.00;;;13.80;99.90;;;;;;6275888;28;20049;-82
2022/10/01 11:35:53;;;;;;;0.00;0.00;;;13.90;99.90;;;;;;6270599;28;20045;-82
2022/10/01 11:38:59;;;;;;;0.00;0.00;;;14.00;99.90;;;;;;6250964;28;20051;-82
2022/10/01 11:42:06;;;;;;;0.00;0.00;;;14.10;99.90;;;;;;6256507;28;20041;-83
2022/10/01 11:45:16;;;;;;;0.00;0.00;;;14.20;99.90;;;;;;6270512;28;20274;-83
2022/10/01 11:48:28;;;;;;;0.00;0.00;;;14.20;99.90;;;;;;6276894;28;20051;-83
2022/10/01 11:51:39;;;;;;;0.00;0.00;;;14.30;99.90;;;;;;6268491;28;20059;-83
2022/10/01 11:54:54;;;;;;;0.00;0.00;;;14.30;99.90;;;;;;6254056;28;20045;-80
2022/10/01 12:01:28;;;;;;;0.00;0.00;;;14.40;99.90;;;;;;6248336;28;20057;-81
2022/10/01 12:04:36;;;;;;;0.00;0.00;;;14.60;99.90;;;;;;6248263;28;20049;-81
2022/10/01 12:07:45;;;;;;;0.00;0.00;;;14.80;99.90;;;;;;6248116;28;20049;-82
2022/10/01 12:10:53;;;;;;;0.00;0.00;;;15.00;99.90;;;;;;6247495;28;20057;-82
2022/10/01 12:14:02;;;;;;;0.00;0.00;;;15.20;99.90;;;;;;6247876;28;20064;-82
2022/10/01 12:17:12;;;;;;;0.00;0.00;;;15.20;99.90;;;;;;6248510;28;20052;-82
2022/10/01 12:20:23;;;;;;;0.00;0.00;;;15.30;99.90;;;;;;6255643;28;20049;-81
2022/10/01 12:23:30;;;;;;;0.00;0.00;;;15.40;99.90;;;;;;6269732;28;20056;-82
2022/10/01 12:26:43;;;;;;;0.00;0.00;;;15.40;99.90;;;;;;6283098;28;20080;-82
2022/10/01 12:29:54;;;;;;;0.00;0.00;;;15.40;99.90;;;;;;6281372;28;20049;-82
2022/10/01 12:33:26;;;;;;;0.75;0.30;;;15.40;99.90;;;;;;6280913;28;20056;-82
2022/10/01 12:36:38;;;;;;;1.15;0.40;;;15.40;99.90;;;;;;6280800;28;20045;-83
2022/10/01 12:39:55;;;;;;;0.55;0.30;;;15.40;99.90;;;;;;6281200;28;20037;-82
2022/10/01 12:43:13;;;;;;;0.70;0.40;;;15.40;99.90;;;;;;6278001;28;20065;-82
2022/10/01 12:46:24;;;;;;;1.05;0.30;;;15.50;99.90;;;;;;6274665;28;20053;-82
2022/10/01 12:49:32;;;;;;;1.38;0.50;;;15.70;99.90;;;;;;6281213;28;20045;-82
2022/10/01 12:52:45;;;;;;;1.98;0.47;;;15.70;99.90;;;;;;6269800;28;20045;-85
2022/10/01 12:55:57;;;;;;;1.65;0.10;;;15.80;99.90;;;;;;6280663;28;20045;-82
2022/10/01 12:59:34;;;;;;;3.03;0.40;;;15.80;99.90;;;;;;6284744;28;20060;-83
2022/10/01 13:02:57;;;;;;;0.80;0.40;;;16.00;99.90;;;;;;6288297;28;20103;-83
2022/10/01 13:06:12;;;;;;;3.35;0.35;;;16.10;99.90;;;;;;6286326;28;20051;-82
2022/10/01 13:09:22;;;;;;;0.73;0.30;;;16.30;99.90;;;;;;6281222;28;20049;-82
2022/10/01 13:12:45;;;;;;;1.52;0.47;;;16.40;99.90;;;;;;6282513;28;20049;-84
2022/10/01 13:15:48;;;;;;;4.18;0.40;;;16.40;99.90;;;;;;6282486;28;20045;-84
2022/10/01 13:19:01;;;;;;;2.40;0.43;;;16.50;99.90;;;;;;6282209;28;20049;-83
2022/10/01 13:22:13;;;;;;;1.38;0.50;;;16.50;99.90;;;;;;6274321;28;20142;-84
2022/10/01 13:25:30;;;;;;;0.52;0.20;;;16.60;99.90;;;;;;6258463;28;20472;-83
2022/10/01 13:28:49;;;;;;;0.52;0.30;;;16.70;99.90;;;;;;6253507;28;20053;-83
2022/10/01 13:31:56;;;;;;;0.63;0.40;;;16.80;99.90;;;;;;6254041;28;20052;-82
2022/10/01 13:34:59;;;;;;;0.73;0.20;;;16.90;99.90;;;;;;6252727;28;20041;-83
2022/10/01 13:38:02;;;;;;;2.13;0.32;;;17.00;99.90;;;;;;6254285;28;20037;-82
2022/10/01 13:41:07;;;;;;;1.23;0.55;;;17.10;99.90;;;;;;6251121;28;20423;-82
2022/10/01 13:44:22;;;;;;;0.95;0.68;;;17.20;99.90;;;;;;6250359;28;20054;-82
2022/10/01 13:47:25;;;;;;;0.93;0.40;;;17.30;99.90;;;;;;6251194;28;20045;-83
2022/10/01 13:50:26;;;;;;;18.98;10.77;;;17.30;99.90;;;;;;6253228;28;20414;-83
2022/10/01 13:53:30;;;;;;;5.68;0.50;;;17.20;99.90;;;;;;6267209;28;20584;-82
2022/10/01 13:56:35;;;;;;;0.55;0.20;;;17.30;99.90;;;;;;6275446;28;20558;-82
2022/10/01 13:59:38;;;;;;;1.45;0.82;;;17.20;99.90;;;;;;6275992;28;20057;-83
2022/10/01 14:02:42;;;;;;;3.03;0.43;;;17.30;99.90;;;;;;6274405;28;20395;-81
2022/10/01 14:05:44;;;;;;;1.45;0.30;;;17.30;99.90;;;;;;6275298;28;20049;-82
2022/10/01 14:08:50;;;;;;;1.38;0.93;;;17.20;99.90;;;;;;6277201;28;20052;-83
2022/10/01 14:18:53;;;;;;;1.38;0.90;;;17.10;99.90;;;;;;6277550;28;20375;-84
2022/10/01 14:22:17;;;;;;;2.10;0.50;;;17.20;99.90;;;;;;6269535;28;20044;-83
2022/10/01 14:25:26;;;;;;;0.52;0.20;;;17.10;99.90;;;;;;6257132;28;20057;-85
2022/10/01 14:28:55;;;;;;;6.22;1.38;;;17.10;99.90;;;;;;6256877;28;20045;-83
2022/10/01 14:32:05;;;;;;;0.73;0.25;;;17.10;99.90;;;;;;6252235;28;20049;-83
2022/10/01 14:35:19;;;;;;;2.28;0.25;;;17.00;99.90;;;;;;6253320;28;20052;-85
2022/10/01 14:38:22;;;;;;;1.35;0.30;;;17.00;99.90;;;;;;6252843;28;20557;-83
2022/10/01 14:41:25;;;;;;;5.35;0.38;;;17.00;99.90;;;;;;6252906;28;20049;-83
2022/10/01 14:44:30;;;;;;;0.68;0.47;;;17.10;99.90;;;;;;6252736;28;20041;-83
2022/10/01 14:47:34;;;;;;;1.02;0.30;;;17.10;99.90;;;;;;6252504;28;20037;-83
2022/10/01 14:50:38;;;;;;;1.05;0.38;;;17.30;99.90;;;;;;6263821;28;20045;-83
2022/10/01 14:53:43;;;;;;;1.15;0.80;;;17.30;99.90;;;;;;6269319;28;20537;-83
2022/10/01 14:56:44;;;;;;;4.95;0.30;;;17.30;99.90;;;;;;6277485;28;20049;-83
2022/10/01 14:59:48;;;;;;;0.65;0.50;;;17.30;99.90;;;;;;6276448;28;20056;-83
2022/10/01 15:02:52;;;;;;;2.75;0.20;;;17.30;99.90;;;;;;6277237;28;20045;-83
2022/10/01 15:06:02;;;;;;;0.43;0.10;;;17.40;99.90;;;;;;6277411;28;20045;-83
2022/10/01 15:09:13;;;;;;;0.85;0.10;;;17.50;99.90;;;;;;6277665;28;20056;-83
2022/10/01 15:12:16;;;;;;;0.25;0.10;;;17.40;99.90;;;;;;6277838;28;20051;-83
2022/10/01 15:15:24;;;;;;;0.40;0.13;;;17.40;99.90;;;;;;6277161;28;20060;-83
2022/10/01 15:18:27;;;;;;;1.10;0.13;;;17.40;99.90;;;;;;6278317;28;20064;-82
2022/10/01 15:21:35;;;;;;;2.17;0.30;;;17.30;99.90;;;;;;6275107;28;20051;-83
2022/10/01 15:24:40;;;;;;;0.93;0.20;;;17.40;99.90;;;;;;6273476;28;20056;-83
2022/10/01 15:27:42;;;;;;;1.00;0.35;;;17.30;99.90;;;;;;6277814;28;20051;-82
2022/10/01 15:30:45;;;;;;;0.20;0.20;;;17.20;99.90;;;;;;6276252;28;20418;-82
2022/10/01 15:33:47;;;;;;;0.95;0.20;;;17.20;99.90;;;;;;6265681;28;20053;-82
2022/10/01 15:36:49;;;;;;;0.35;0.20;;;17.10;99.90;;;;;;6252927;28;20056;-83
2022/10/01 15:39:53;;;;;;;2.60;0.32;;;17.10;99.90;;;;;;6251733;28;20046;-82
2022/10/01 15:43:24;;;;;;;3.05;0.57;;;17.10;99.90;;;;;;6251219;28;20052;-83
2022/10/01 15:46:31;;;;;;;0.30;0.20;;;17.10;99.90;;;;;;6257129;28;20045;-82
2022/10/01 15:49:32;;;;;;;0.50;0.20;;;17.10;99.90;;;;;;6276649;28;20091;-82
2022/10/01 15:52:50;;;;;;;1.00;0.10;;;17.10;99.90;;;;;;6268555;28;20041;-82
2022/10/01 15:55:55;;;;;;;1.38;0.20;;;17.00;99.90;;;;;;6274544;28;20048;-82
2022/10/01 15:59:10;;;;;;;2.13;0.57;;;17.00;99.90;;;;;;6279162;28;20179;-83
2022/10/01 16:02:19;;;;;;;0.43;0.32;;;17.00;99.90;;;;;;6281030;28;20049;-83
2022/10/01 16:05:23;;;;;;;1.88;0.20;;;17.10;99.90;;;;;;6283569;28;20045;-83
2022/10/01 16:08:32;;;;;;;0.55;0.15;;;17.10;99.90;;;;;;6281743;28;20045;-83
2022/10/01 16:11:50;;;;;;;0.60;0.25;;;17.10;99.90;;;;;;6281171;28;20049;-83
2022/10/01 16:14:59;;;;;;;2.67;0.10;;;17.10;99.90;;;;;;6282697;28;20049;-84
2022/10/01 16:18:03;;;;;;;4.43;1.65;;;17.10;99.90;;;;;;6282193;28;20041;-85
2022/10/01 16:21:07;;;;;;;3.75;0.30;;;17.00;99.90;;;;;;6284411;28;20051;-85
2022/10/01 16:24:26;;;;;;;1.05;0.20;;;17.00;99.90;;;;;;6277260;28;20053;-85
2022/10/01 16:27:31;;;;;;;0.32;0.28;;;17.00;99.90;;;;;;6284092;28;20041;-84